createdAt,value
2023-02-19T00:00:59.093Z,1.20
2023-02-19T00:03:26.278Z,1.10
2023-02-19T00:05:53.435Z,1.43
2023-02-19T00:08:20.562Z,1.10
2023-02-19T00:10:47.713Z,1.50
2023-02-19T00:13:15.005Z,1.10
2023-02-19T00:15:42.178Z,1.50
2023-02-19T00:18:09.398Z,1.23
2023-02-19T00:20:36.546Z,1.00
2023-02-19T00:23:03.709Z,1.20
2023-02-19T00:25:30.825Z,1.30
2023-02-19T00:27:57.988Z,1.30
2023-02-19T00:30:25.173Z,1.20
2023-02-19T00:32:52.428Z,1.30
2023-02-19T00:35:19.624Z,1.40
2023-02-19T00:37:46.842Z,1.50
2023-02-19T00:40:14.032Z,1.07
2023-02-19T00:42:41.175Z,1.20
2023-02-19T00:45:08.543Z,1.30
2023-02-19T00:47:35.665Z,1.40
2023-02-19T00:50:02.879Z,1.50
2023-02-19T00:52:30.010Z,1.20
2023-02-19T00:54:57.109Z,1.10
2023-02-19T00:57:24.227Z,1.40
2023-02-19T00:59:51.393Z,1.37
2023-02-19T01:02:18.571Z,1.30
2023-02-19T01:04:45.698Z,1.40
2023-02-19T01:07:12.882Z,1.50
2023-02-19T01:09:40.090Z,1.30
2023-02-19T01:12:07.473Z,1.53
2023-02-19T01:14:34.607Z,1.23
2023-02-19T01:17:01.725Z,1.10
2023-02-19T01:19:28.977Z,1.30
2023-02-19T01:21:56.107Z,1.10
2023-02-19T01:24:23.232Z,1.37
2023-02-19T01:26:50.441Z,1.17
2023-02-19T01:29:17.638Z,1.30
2023-02-19T01:31:44.925Z,1.40
2023-02-19T01:34:12.989Z,0.93
2023-02-19T01:36:40.134Z,1.00
2023-02-19T01:39:07.544Z,1.73
2023-02-19T01:41:39.455Z,1.63
2023-02-19T01:44:26.594Z,1.00
2023-02-19T01:46:58.639Z,1.50
2023-02-19T01:49:28.501Z,1.17
2023-02-19T01:52:01.371Z,0.90
2023-02-19T01:54:30.633Z,1.40
2023-02-19T01:56:58.188Z,1.20
2023-02-19T01:59:25.360Z,0.87
2023-02-19T02:01:52.779Z,1.30
2023-02-19T02:04:20.010Z,1.00
2023-02-19T02:06:52.192Z,1.20
2023-02-19T02:09:38.679Z,1.30
2023-02-19T02:12:05.886Z,1.10
2023-02-19T02:14:35.205Z,1.13
2023-02-19T02:17:21.030Z,1.20
2023-02-19T02:20:02.086Z,1.10
2023-02-19T02:22:47.345Z,1.00
2023-02-19T02:25:14.462Z,1.10
2023-02-19T02:28:00.381Z,1.07
2023-02-19T02:30:27.638Z,1.27
2023-02-19T02:33:15.999Z,0.87
2023-02-19T02:35:45.814Z,1.10
2023-02-19T02:38:14.391Z,1.40
2023-02-19T02:40:43.812Z,0.80
2023-02-19T02:43:11.760Z,0.93
2023-02-19T02:45:39.976Z,1.10
2023-02-19T02:48:10.335Z,1.00
2023-02-19T02:50:57.776Z,1.10
2023-02-19T02:53:58.263Z,1.10
2023-02-19T02:56:26.139Z,1.30
2023-02-19T02:58:54.021Z,1.30
2023-02-19T03:01:43.772Z,1.20
2023-02-19T03:04:14.742Z,1.07
2023-02-19T03:06:43.301Z,1.27
2023-02-19T03:09:20.086Z,1.20
2023-02-19T03:12:07.824Z,1.00
2023-02-19T03:14:57.414Z,1.13
2023-02-19T03:17:49.529Z,1.07
2023-02-19T03:20:18.223Z,1.20
2023-02-19T03:22:46.107Z,0.87
2023-02-19T03:25:38.485Z,1.00
2023-02-19T03:28:07.487Z,1.20
2023-02-19T03:30:37.402Z,1.20
2023-02-19T03:33:08.279Z,0.67
2023-02-19T03:35:42.616Z,1.10
2023-02-19T03:38:10.041Z,1.10
2023-02-19T03:40:42.284Z,0.90
2023-02-19T03:43:09.432Z,0.70
2023-02-19T03:45:45.907Z,1.00
2023-02-19T03:48:25.741Z,1.03
2023-02-19T03:50:59.413Z,0.90
2023-02-19T03:53:47.256Z,1.10
2023-02-19T03:56:23.137Z,1.03
2023-02-19T03:58:50.267Z,0.87
2023-02-19T04:01:22.291Z,1.00
2023-02-19T04:03:52.653Z,0.97
2023-02-19T04:06:39.690Z,0.93
2023-02-19T04:09:08.233Z,1.03
2023-02-19T04:11:37.347Z,1.10
2023-02-19T04:14:13.799Z,0.90
2023-02-19T04:16:42.757Z,1.10
2023-02-19T04:19:12.135Z,1.10
2023-02-19T04:21:40.794Z,1.17
2023-02-19T04:24:10.962Z,0.70
2023-02-19T04:26:38.346Z,0.83
2023-02-19T04:29:05.507Z,0.60
2023-02-19T04:31:35.480Z,0.70
2023-02-19T04:34:03.868Z,0.83
2023-02-19T04:36:31.740Z,0.80
2023-02-19T04:38:59.012Z,1.60
2023-02-19T04:41:26.278Z,0.90
2023-02-19T04:43:53.453Z,0.73
2023-02-19T04:46:20.665Z,0.70
2023-02-19T04:48:47.830Z,1.00
2023-02-19T04:51:15.078Z,0.90
2023-02-19T04:53:42.785Z,1.00
2023-02-19T04:56:10.858Z,0.90
2023-02-19T04:58:38.070Z,1.00
2023-02-19T05:01:05.510Z,0.87
2023-02-19T05:03:32.995Z,0.80
2023-02-19T05:06:02.620Z,0.77
2023-02-19T05:08:29.746Z,1.20
2023-02-19T05:11:03.981Z,0.90
2023-02-19T05:13:31.355Z,1.00
2023-02-19T05:16:00.101Z,1.20
2023-02-19T05:18:27.602Z,1.13
2023-02-19T05:20:55.278Z,0.90
2023-02-19T05:23:22.446Z,0.90
2023-02-19T05:25:49.797Z,1.03
2023-02-19T05:28:17.079Z,1.10
2023-02-19T05:30:51.531Z,1.13
2023-02-19T05:33:19.491Z,1.00
2023-02-19T05:35:48.246Z,1.00
2023-02-19T05:38:16.227Z,1.00
2023-02-19T05:40:44.147Z,0.87
2023-02-19T05:43:11.713Z,1.17
2023-02-19T05:45:39.125Z,1.00
2023-02-19T05:48:07.113Z,0.70
2023-02-19T05:50:35.449Z,0.90
2023-02-19T05:53:03.121Z,0.87
2023-02-19T05:55:30.306Z,0.90
2023-02-19T05:57:57.456Z,0.90
2023-02-19T06:00:26.999Z,0.80
2023-02-19T06:02:54.455Z,1.00
2023-02-19T06:05:21.858Z,0.90
2023-02-19T06:07:50.519Z,1.00
2023-02-19T06:10:18.228Z,1.07
2023-02-19T06:12:45.621Z,0.97
2023-02-19T06:15:12.780Z,0.90
2023-02-19T06:17:39.975Z,0.87
2023-02-19T06:20:07.374Z,1.07
2023-02-19T06:22:34.500Z,1.33
2023-02-19T06:25:01.697Z,0.83
2023-02-19T06:27:28.969Z,1.20
2023-02-19T06:29:56.137Z,0.70
2023-02-19T06:32:23.493Z,1.10
2023-02-19T06:34:50.695Z,0.87
2023-02-19T06:37:17.847Z,1.00
2023-02-19T06:39:45.035Z,0.87
2023-02-19T06:42:12.226Z,1.20
2023-02-19T06:44:39.458Z,1.03
2023-02-19T06:47:06.583Z,0.90
2023-02-19T06:49:33.694Z,1.10
2023-02-19T06:52:01.956Z,1.20
2023-02-19T06:54:29.116Z,1.20
2023-02-19T06:56:58.969Z,1.13
2023-02-19T06:59:26.413Z,1.10
2023-02-19T07:01:53.595Z,1.20
2023-02-19T07:04:20.773Z,1.10
2023-02-19T07:06:48.008Z,1.10
2023-02-19T07:09:15.265Z,1.00
2023-02-19T07:11:42.690Z,1.00
2023-02-19T07:14:14.281Z,0.80
2023-02-19T07:16:41.518Z,1.00
2023-02-19T07:19:09.652Z,1.00
2023-02-19T07:21:37.829Z,0.90
2023-02-19T07:24:05.928Z,1.03
2023-02-19T07:26:33.130Z,1.03
2023-02-19T07:29:00.346Z,0.67
2023-02-19T07:31:27.670Z,0.97
2023-02-19T07:33:55.497Z,0.93
2023-02-19T07:36:23.750Z,1.10
2023-02-19T07:38:57.470Z,0.90
2023-02-19T07:41:25.192Z,0.93
2023-02-19T07:43:52.374Z,1.23
2023-02-19T07:46:19.550Z,0.87
2023-02-19T07:48:46.681Z,0.90
2023-02-19T07:51:19.024Z,1.03
2023-02-19T07:53:47.030Z,1.27
2023-02-19T07:56:14.292Z,1.10
2023-02-19T07:58:41.565Z,1.10
2023-02-19T08:01:16.311Z,0.97
2023-02-19T08:03:43.804Z,1.00
2023-02-19T08:06:11.920Z,1.03
2023-02-19T08:08:39.790Z,1.10
2023-02-19T08:11:25.946Z,1.00
2023-02-19T08:13:53.851Z,0.83
2023-02-19T08:16:33.264Z,1.10
2023-02-19T08:19:04.743Z,1.03
2023-02-19T08:21:34.199Z,1.20
2023-02-19T08:24:01.564Z,1.10
2023-02-19T08:26:28.833Z,1.03
2023-02-19T08:28:55.952Z,1.10
2023-02-19T08:31:23.177Z,0.97
2023-02-19T08:33:50.407Z,0.80
2023-02-19T08:36:17.608Z,1.20
2023-02-19T08:38:44.765Z,1.50
2023-02-19T08:41:13.110Z,0.77
2023-02-19T08:43:41.097Z,1.10
2023-02-19T08:46:10.174Z,1.10
2023-02-19T08:48:37.709Z,1.20
2023-02-19T08:51:08.095Z,1.10
2023-02-19T08:53:35.817Z,1.20
2023-02-19T08:56:07.083Z,1.00
2023-02-19T08:58:34.293Z,1.00
2023-02-19T09:01:01.463Z,1.13
2023-02-19T09:03:28.768Z,1.23
2023-02-19T09:05:55.903Z,1.10
2023-02-19T09:08:23.097Z,1.20
2023-02-19T09:11:03.386Z,1.00
2023-02-19T09:13:30.587Z,1.13
2023-02-19T09:15:57.802Z,1.40
2023-02-19T09:18:25.544Z,1.00
2023-02-19T09:20:52.777Z,1.00
2023-02-19T09:23:19.913Z,0.90
2023-02-19T09:25:47.180Z,1.13
2023-02-19T09:28:14.366Z,1.20
2023-02-19T09:30:41.585Z,0.93
2023-02-19T09:33:09.221Z,1.07
2023-02-19T09:35:38.921Z,1.13
2023-02-19T09:38:06.155Z,0.80
2023-02-19T09:40:33.554Z,1.13
2023-02-19T09:43:01.844Z,1.17
2023-02-19T09:45:29.219Z,1.00
2023-02-19T09:47:57.616Z,0.90
2023-02-19T09:50:30.934Z,1.00
2023-02-19T09:52:59.751Z,1.20
2023-02-19T09:55:37.914Z,1.00
2023-02-19T09:58:27.239Z,1.20
2023-02-19T10:00:56.100Z,1.17
2023-02-19T10:03:31.769Z,1.30
2023-02-19T10:06:00.203Z,0.90
2023-02-19T10:08:27.442Z,1.20
2023-02-19T10:10:54.898Z,1.10
2023-02-19T10:13:23.708Z,0.90
2023-02-19T10:15:56.017Z,1.30
2023-02-19T10:18:24.741Z,1.10
2023-02-19T10:20:53.246Z,1.20
2023-02-19T10:23:21.050Z,1.13
2023-02-19T10:25:50.221Z,1.37
2023-02-19T10:28:22.346Z,1.10
2023-02-19T10:30:54.260Z,1.20
2023-02-19T10:33:22.357Z,1.40
2023-02-19T10:36:07.165Z,1.50
2023-02-19T10:38:35.706Z,2.40
2023-02-19T10:41:07.521Z,1.00
2023-02-19T10:43:40.760Z,1.37
2023-02-19T10:46:08.918Z,1.10
2023-02-19T10:48:38.115Z,1.13
2023-02-19T10:51:07.140Z,0.97
2023-02-19T10:53:41.454Z,1.40
2023-02-19T10:56:14.333Z,1.60
2023-02-19T10:58:44.734Z,1.40
2023-02-19T11:01:12.336Z,1.43
2023-02-19T11:03:39.745Z,1.30
2023-02-19T11:06:09.035Z,1.33
2023-02-19T11:08:46.097Z,1.20
2023-02-19T11:11:26.904Z,1.20
2023-02-19T11:13:55.185Z,1.07
2023-02-19T11:16:22.377Z,1.13
2023-02-19T11:18:57.231Z,1.30
2023-02-19T11:21:32.969Z,1.10
2023-02-19T11:24:02.790Z,1.10
2023-02-19T11:26:38.178Z,1.40
2023-02-19T11:29:19.907Z,1.13
2023-02-19T11:31:47.159Z,1.53
2023-02-19T11:34:14.578Z,1.30
2023-02-19T11:36:42.058Z,1.13
2023-02-19T11:39:18.113Z,1.23
2023-02-19T11:42:09.798Z,1.40
2023-02-19T11:44:46.555Z,1.10
2023-02-19T11:47:22.756Z,1.30
2023-02-19T11:49:58.722Z,1.53
2023-02-19T11:52:44.384Z,1.00
2023-02-19T11:55:26.904Z,0.70
2023-02-19T11:58:00.861Z,0.67
2023-02-19T12:00:29.449Z,0.87
2023-02-19T12:03:15.369Z,1.07
2023-02-19T12:05:57.841Z,0.80
2023-02-19T12:08:24.955Z,0.70
2023-02-19T12:10:52.195Z,0.80
2023-02-19T12:13:39.572Z,0.97
2023-02-19T12:16:15.948Z,0.90
2023-02-19T12:18:49.209Z,0.87
2023-02-19T12:21:38.984Z,1.00
2023-02-19T12:24:18.499Z,1.00
2023-02-19T12:26:59.260Z,1.00
2023-02-19T12:29:45.107Z,0.80
2023-02-19T12:32:18.424Z,0.90
2023-02-19T12:34:52.717Z,0.80
2023-02-19T12:37:19.846Z,0.90
2023-02-19T12:40:05.835Z,0.80
2023-02-19T12:42:35.992Z,0.90
2023-02-19T12:45:05.782Z,1.00
2023-02-19T12:47:35.824Z,0.93
2023-02-19T12:50:08.993Z,1.40
2023-02-19T12:52:40.943Z,1.20
2023-02-19T12:55:20.921Z,1.10
2023-02-19T12:57:48.346Z,1.40
2023-02-19T13:00:22.206Z,2.10
2023-02-19T13:02:51.669Z,5.23
2023-02-19T13:05:21.242Z,1.80
2023-02-19T13:08:00.900Z,2.10
2023-02-19T13:10:41.212Z,1.70
2023-02-19T13:13:13.541Z,1.47
2023-02-19T13:15:45.901Z,2.50
2023-02-19T13:18:19.452Z,2.00
2023-02-19T13:20:47.830Z,1.90
2023-02-19T13:23:40.377Z,1.63
2023-02-19T13:26:07.747Z,1.83
2023-02-19T13:28:53.262Z,1.70
2023-02-19T13:31:24.867Z,2.00
2023-02-19T13:34:04.459Z,1.90
2023-02-19T13:36:31.906Z,2.07
2023-02-19T13:39:00.116Z,2.10
2023-02-19T13:41:29.060Z,2.10
2023-02-19T13:44:01.451Z,1.80
2023-02-19T13:46:34.568Z,2.20
2023-02-19T13:49:20.678Z,1.90
2023-02-19T13:51:49.563Z,2.10
2023-02-19T13:54:22.897Z,2.00
2023-02-19T13:56:50.685Z,2.47
2023-02-19T13:59:17.788Z,3.20
2023-02-19T14:01:54.115Z,3.33
2023-02-19T14:04:21.391Z,3.40
2023-02-19T14:07:04.030Z,2.90
2023-02-19T14:09:37.099Z,3.70
2023-02-19T14:12:10.380Z,2.47
2023-02-19T14:14:37.665Z,2.70
2023-02-19T14:17:12.506Z,3.23
2023-02-19T14:19:42.872Z,3.43
2023-02-19T14:22:30.709Z,2.33
2023-02-19T14:24:58.442Z,2.83
2023-02-19T14:27:26.166Z,3.17
2023-02-19T14:29:53.596Z,3.53
2023-02-19T14:32:20.937Z,2.60
2023-02-19T14:34:48.230Z,3.50
2023-02-19T14:37:20.249Z,2.93
2023-02-19T14:39:47.796Z,3.10
2023-02-19T14:42:17.748Z,3.53
2023-02-19T14:44:44.862Z,3.00
2023-02-19T14:47:16.885Z,2.80
2023-02-19T14:49:53.264Z,3.47
2023-02-19T14:52:44.390Z,3.73
2023-02-19T14:55:18.902Z,2.97
2023-02-19T14:57:47.318Z,3.00
2023-02-19T15:00:23.635Z,3.50
2023-02-19T15:02:52.762Z,3.47
2023-02-19T15:05:22.871Z,3.70
2023-02-19T15:07:50.754Z,3.37
2023-02-19T15:10:18.837Z,2.97
2023-02-19T15:12:52.112Z,3.37
2023-02-19T15:15:22.201Z,3.20
2023-02-19T15:17:50.107Z,4.10
2023-02-19T15:20:18.872Z,3.70
2023-02-19T15:22:46.374Z,4.43
2023-02-19T15:25:18.757Z,3.17
2023-02-19T15:27:45.968Z,3.90
2023-02-19T15:30:21.369Z,3.50
2023-02-19T15:32:56.053Z,3.70
2023-02-19T15:35:25.080Z,3.70
2023-02-19T15:37:52.844Z,3.97
2023-02-19T15:40:21.154Z,3.57
2023-02-19T15:42:48.478Z,3.70
2023-02-19T15:45:23.555Z,3.40
2023-02-19T15:47:53.124Z,3.10
2023-02-19T15:50:25.985Z,3.13
2023-02-19T15:53:09.295Z,3.50
2023-02-19T15:55:42.335Z,3.97
2023-02-19T15:58:15.778Z,3.77
2023-02-19T16:00:47.312Z,3.57
2023-02-19T16:03:21.673Z,3.43
2023-02-19T16:06:15.034Z,3.37
2023-02-19T16:08:43.444Z,3.33
2023-02-19T16:11:40.166Z,3.67
2023-02-19T16:14:26.151Z,3.50
2023-02-19T16:16:55.463Z,3.57
2023-02-19T16:19:24.179Z,3.87
2023-02-19T16:21:51.857Z,3.23
2023-02-19T16:24:33.491Z,4.10
2023-02-19T16:27:01.005Z,3.73
2023-02-19T16:29:29.688Z,3.70
2023-02-19T16:32:00.475Z,3.67
2023-02-19T16:34:48.028Z,3.80
2023-02-19T16:37:30.470Z,3.43
2023-02-19T16:40:17.526Z,4.47
2023-02-19T16:42:51.634Z,4.03
2023-02-19T16:45:19.206Z,3.73
2023-02-19T16:47:51.104Z,3.87
2023-02-19T16:50:20.573Z,3.50
2023-02-19T16:53:05.781Z,3.47
2023-02-19T16:55:34.536Z,3.80
2023-02-19T16:58:02.011Z,4.17
2023-02-19T17:00:30.239Z,3.57
2023-02-19T17:03:02.477Z,3.97
2023-02-19T17:05:32.522Z,4.30
2023-02-19T17:07:59.752Z,4.10
2023-02-19T17:10:28.143Z,3.30
2023-02-19T17:12:56.110Z,4.30
2023-02-19T17:15:23.602Z,3.83
2023-02-19T17:17:50.790Z,4.27
2023-02-19T17:20:17.900Z,4.43
2023-02-19T17:22:45.148Z,4.07
2023-02-19T17:25:12.276Z,4.03
2023-02-19T17:27:39.655Z,4.10
2023-02-19T17:30:12.253Z,4.00
2023-02-19T17:32:39.486Z,4.50
2023-02-19T17:35:06.836Z,3.60
2023-02-19T17:37:33.980Z,3.63
2023-02-19T17:40:01.116Z,3.80
2023-02-19T17:42:28.345Z,3.60
2023-02-19T17:44:55.527Z,4.73
2023-02-19T17:47:22.645Z,3.93
2023-02-19T17:49:49.775Z,3.00
2023-02-19T17:52:19.305Z,3.60
2023-02-19T17:54:46.547Z,3.43
2023-02-19T17:57:13.669Z,3.67
2023-02-19T17:59:40.816Z,4.00
2023-02-19T18:02:07.979Z,4.67
2023-02-19T18:04:36.612Z,3.20
2023-02-19T18:07:04.200Z,3.80
2023-02-19T18:09:31.326Z,3.77
2023-02-19T18:11:58.508Z,3.80
2023-02-19T18:14:25.635Z,3.23
2023-02-19T18:16:52.786Z,4.00
2023-02-19T18:19:20.061Z,3.80
2023-02-19T18:21:47.285Z,4.27
2023-02-19T18:24:14.466Z,3.57
2023-02-19T18:26:41.611Z,4.07
2023-02-19T18:29:08.784Z,3.53
2023-02-19T18:31:37.807Z,3.50
2023-02-19T18:34:05.805Z,3.87
2023-02-19T18:36:33.216Z,3.30
2023-02-19T18:39:00.357Z,3.40
2023-02-19T18:41:27.481Z,3.47
2023-02-19T18:43:54.656Z,3.00
2023-02-19T18:46:22.216Z,3.27
2023-02-19T18:48:49.387Z,4.07
2023-02-19T18:51:16.503Z,3.13
2023-02-19T18:53:43.817Z,3.23
2023-02-19T18:56:10.965Z,3.37
2023-02-19T18:58:38.117Z,3.50
2023-02-19T19:01:05.363Z,4.20
2023-02-19T19:03:32.552Z,3.60
2023-02-19T19:05:59.746Z,4.13
2023-02-19T19:08:28.191Z,2.77
2023-02-19T19:10:56.277Z,3.60
2023-02-19T19:13:23.438Z,3.83
2023-02-19T19:15:51.201Z,3.67
2023-02-19T19:18:18.519Z,3.70
2023-02-19T19:20:45.701Z,4.23
2023-02-19T19:23:13.024Z,3.60
2023-02-19T19:25:40.287Z,3.70
2023-02-19T19:28:07.432Z,3.60
2023-02-19T19:30:34.683Z,3.50
2023-02-19T19:33:03.533Z,3.00
2023-02-19T19:35:30.681Z,3.77
2023-02-19T19:37:57.817Z,4.10
2023-02-19T19:40:24.937Z,3.60
2023-02-19T19:42:52.604Z,3.83
2023-02-19T19:45:19.834Z,3.53
2023-02-19T19:47:48.639Z,3.50
2023-02-19T19:50:16.482Z,4.10
2023-02-19T19:52:43.654Z,3.90
2023-02-19T19:55:10.913Z,3.50
2023-02-19T19:57:40.604Z,3.50
2023-02-19T20:00:08.331Z,3.77
2023-02-19T20:02:35.555Z,3.43
2023-02-19T20:05:02.739Z,3.00
2023-02-19T20:07:29.871Z,3.27
2023-02-19T20:09:57.014Z,2.80
2023-02-19T20:12:24.141Z,3.43
2023-02-19T20:14:51.353Z,2.70
2023-02-19T20:17:18.539Z,2.90
2023-02-19T20:19:46.257Z,3.07
2023-02-19T20:22:13.448Z,2.67
2023-02-19T20:24:40.611Z,3.20
2023-02-19T20:27:07.745Z,3.20
2023-02-19T20:29:35.492Z,3.03
2023-02-19T20:32:03.740Z,2.90
2023-02-19T20:34:31.344Z,2.70
2023-02-19T20:36:58.750Z,3.10
2023-02-19T20:39:28.951Z,2.80
2023-02-19T20:41:56.282Z,2.80
2023-02-19T20:44:23.544Z,2.90
2023-02-19T20:46:51.354Z,2.77
2023-02-19T20:49:19.947Z,2.83
2023-02-19T20:51:48.279Z,3.00
2023-02-19T20:54:16.960Z,2.80
2023-02-19T20:56:47.586Z,2.70
2023-02-19T20:59:15.562Z,2.53
2023-02-19T21:01:43.016Z,2.80
2023-02-19T21:04:10.213Z,2.60
2023-02-19T21:06:37.565Z,3.77
2023-02-19T21:09:05.692Z,2.60
2023-02-19T21:11:33.195Z,2.53
2023-02-19T21:14:00.365Z,3.20
2023-02-19T21:16:28.603Z,2.53
2023-02-19T21:18:56.058Z,2.70
2023-02-19T21:21:27.260Z,2.90
2023-02-19T21:23:55.479Z,3.80
2023-02-19T21:26:23.327Z,2.70
2023-02-19T21:28:53.691Z,3.20
2023-02-19T21:31:22.849Z,2.50
2023-02-19T21:33:51.614Z,3.00
2023-02-19T21:36:18.991Z,3.20
2023-02-19T21:38:46.127Z,3.07
2023-02-19T21:41:13.293Z,2.73
2023-02-19T21:43:40.480Z,3.30
2023-02-19T21:46:07.594Z,3.07
2023-02-19T21:48:34.728Z,3.37
2023-02-19T21:51:01.901Z,3.03
2023-02-19T21:53:29.071Z,2.23
2023-02-19T21:55:59.087Z,2.70
2023-02-19T21:58:26.911Z,2.83
2023-02-19T22:00:54.304Z,2.60
2023-02-19T22:03:21.528Z,3.00
2023-02-19T22:05:48.640Z,2.80
2023-02-19T22:08:17.408Z,2.40
2023-02-19T22:10:44.771Z,2.37
2023-02-19T22:13:11.961Z,2.70
2023-02-19T22:15:39.107Z,2.50
2023-02-19T22:18:06.341Z,3.10
2023-02-19T22:20:34.712Z,2.53
2023-02-19T22:23:01.919Z,3.07
2023-02-19T22:25:29.080Z,2.80
2023-02-19T22:27:56.309Z,2.43
2023-02-19T22:30:23.550Z,2.37
2023-02-19T22:32:50.812Z,2.90
2023-02-19T22:35:18.095Z,2.43
2023-02-19T22:37:45.258Z,2.67
2023-02-19T22:40:12.706Z,2.57
2023-02-19T22:42:40.006Z,2.70
2023-02-19T22:45:07.460Z,2.50
2023-02-19T22:47:34.586Z,2.50
2023-02-19T22:50:01.779Z,3.10
2023-02-19T22:52:28.961Z,3.00
2023-02-19T22:54:56.538Z,2.80
2023-02-19T22:57:23.668Z,2.40
2023-02-19T22:59:50.832Z,2.60
2023-02-19T23:02:17.995Z,2.27
2023-02-19T23:04:45.245Z,2.70
2023-02-19T23:07:12.414Z,2.37
2023-02-19T23:09:39.575Z,2.53
2023-02-19T23:12:08.282Z,2.70
2023-02-19T23:14:35.836Z,2.57
2023-02-19T23:17:03.112Z,2.97
2023-02-19T23:19:30.573Z,2.70
2023-02-19T23:21:58.125Z,2.50
2023-02-19T23:24:25.470Z,2.77
2023-02-19T23:26:53.518Z,2.87
2023-02-19T23:29:27.320Z,2.17
2023-02-19T23:31:55.041Z,2.23
2023-02-19T23:34:22.372Z,2.40
2023-02-19T23:36:50.459Z,2.40
2023-02-19T23:39:19.057Z,2.47
2023-02-19T23:41:47.313Z,2.67
2023-02-19T23:44:14.520Z,2.37
2023-02-19T23:46:41.749Z,2.70
2023-02-19T23:49:08.862Z,2.40
2023-02-19T23:51:36.013Z,2.50
2023-02-19T23:54:03.153Z,2.23
2023-02-19T23:56:30.653Z,3.00
2023-02-19T23:58:58.088Z,2.10
